Nearby METAR Reports

 

KAFF - US Air Force Academy
Distance from station: W 3mi, 4km
Updated: Tue, May-24-2022 3:28pm MDT
Mostly cloudy
Mostly cloudy
 Wind from SE
Wind: SE 5 mph , 7 km/h
Temperature: 52°F , 11°C
Dew Point: 30°F , -1°C
Humidity: 44%
Barometer: 29.97 inHg , 1014.9 hPa
Clouds: Mostly cloudy
Visibility: 10 miles , 16 km
Cloud details: Mostly cloudy 4500 ft
Mostly cloudy 7000 ft
2022/05/24 21:28 KAFF 242128Z 14004KT 10SM BKN045 BKN070 11/M01 A2997 RMK AO2A SLP125
KCOS - Colorado Springs Municipal
Distance from station: SSE 11mi, 18km
Updated: Tue, May-24-2022 3:40pm MDT
Mostly cloudy
Mostly cloudy
 Wind from S
Wind: S 13 mph , 20 km/h
Temperature: 52°F , 11°C
Dew Point: 36°F , 2°C
Humidity: 54%
Barometer: 29.99 inHg , 1015.6 hPa
Clouds: Mostly cloudy
Visibility: 10 miles , 16 km
Cloud details: Partly cloudy 3500 ft
Mostly cloudy 7000 ft
Mostly cloudy 23000 ft
2022/05/24 21:40 KCOS 242140Z 18011KT 10SM SCT035 BKN070 BKN230 11/02 A2999 RMK AO2 WSHFT 2120 LTG DSNT SE CB DSNT SE MOV S T01110022 $
 
KFLY - Colorado Springs Meadow
Distance from station: E 11mi, 18km
Updated: Tue, May-24-2022 3:34pm MDT
Overcast
Overcast
 Wind from NNE
Wind: NNE 10 mph , 17 km/h, Gust: 20 mph , 31 km/h
Temperature: 52°F , 11°C
Dew Point: 27°F , -3°C
Humidity: 38%
Barometer: 30.01 inHg , 1016.3 hPa
Clouds: Overcast
Visibility: 10 miles , 16 km
Cloud details: Partly cloudy 4700 ft
Partly cloudy 6500 ft
Overcast 7500 ft
2022/05/24 21:34 KFLY 242134Z AUTO 03009G17KT 010V080 10SM SCT047 SCT065 OVC075 11/M03 A3001 RMK AO2 T01141032
KCWN - Cheyenne Mountain
Distance from station: SSW 15mi, 24km
Updated: Tue, May-24-2022 2:58pm MDT
Mostly cloudy
Mostly cloudy
 Wind from E
Wind: E 7 mph , 11 km/h
Temperature: 48°F , 9°C
Wind Chill: 45°F , 7°C
Dew Point: 28°F , -2°C
Humidity: 46%
Barometer: 30.05 inHg , 1017.6 hPa
Clouds: Mostly cloudy
Visibility: 10 miles , 16 km
Cloud details: Mostly cloudy 5000 ft
Mostly cloudy 9000 ft
2022/05/24 20:58 KCWN 242058Z AUTO 10006KT 10SM BKN050 BKN090 09/M02 A3005 RMK AO2 SLP068 T00941019 58001 $
 
KMNH - Monument/Elbert
Distance from station: NNE 19mi, 30km
Updated: Tue, May-24-2022 3:35pm MDT
Clear
Clear
 Wind from ENE
Wind: ENE 7 mph , 11 km/h
Temperature: 46°F , 8°C
Wind Chill: 42°F , 6°C
Dew Point: -9°F , -23°C
Humidity: 9%
Barometer: 30.02 inHg , 1016.6 hPa
Clouds: Clear
Visibility: 10 miles , 16 km
2022/05/24 21:35 KMNH 242135Z AUTO 07006KT 10SM CLR 08/M23 A3002 RMK AO2
KFCS - Fort Carson
Distance from station: S 20mi, 33km
Updated: Tue, May-24-2022 2:58pm MDT
Mostly cloudy
Mostly cloudy
 Wind from S
Wind: S 16 mph , 26 km/h
Temperature: 50°F , 10°C
Wind Chill: 44°F , 7°C
Dew Point: 39°F , 4°C
Humidity: 67%
Barometer: 29.97 inHg , 1014.9 hPa
Clouds: Mostly cloudy
Visibility: 10 miles , 16 km
Cloud details: Few Clouds 1700 ft
Mostly cloudy 6000 ft
Mostly cloudy 8000 ft
2022/05/24 20:58 KFCS 242058Z AUTO 17014KT 10SM FEW017 BKN060 BKN080 10/04 A2997 RMK AO2 DZE06DZB32E38RAB38E43DZB43E52 SLP149 P0000 60000 T00950035 56006 $
 
KABH - Ellicot
Distance from station: ESE 29mi, 46km
Updated: Tue, May-24-2022 2:58pm MDT
Few Clouds
Few Clouds
 Wind from ENE
Wind: ENE 13 mph , 20 km/h
Temperature: 52°F , 11°C
Dew Point: 36°F , 2°C
Humidity: 54%
Barometer: 30.01 inHg , 1016.3 hPa
Clouds: Few Clouds
Visibility: 10 miles , 16 km
Cloud details: Few Clouds 3000 ft
Few Clouds 3700 ft
2022/05/24 20:58 KABH 242058Z AUTO 07011KT 10SM FEW030 FEW037 11/02 A3001 RMK AO2 SLP149 T01090020 56006
K1V6 - Canon City
Distance from station: SSW 41mi, 65km
Updated: Tue, May-24-2022 3:35pm MDT
Mostly cloudy
Mostly cloudy
 Wind from E
Wind: E 7 mph , 11 km/h
Temperature: 55°F , 13°C
Dew Point: 37°F , 3°C
Humidity: 51%
Barometer: 29.97 inHg , 1014.9 hPa
Clouds: Mostly cloudy
Visibility: 10 miles , 16 km
Cloud details: Partly cloudy 4400 ft
Mostly cloudy 5000 ft
Mostly cloudy 9500 ft
2022/05/24 21:35 K1V6 242135Z AUTO 08006KT 10SM SCT044 BKN050 BKN095 13/03 A2997 RMK AO2
 
K4BM - Wilkerson Pass
Distance from station: W 41mi, 65km
Updated: Tue, May-24-2022 3:35pm MDT
Snow, Overcast
Snow, Overcast
 Wind from NNE
Wind: NNE 3 mph , 6 km/h
Temperature: 28°F , -2°C
Dew Point: 27°F , -3°C
Humidity: 93%
Barometer: 30.13 inHg , 1020.3 hPa
Summary: Snow
Clouds: Overcast
Visibility: 1/4 mile , 0.4 km
Cloud details: Overcast 100 ft
2022/05/24 21:35 K4BM 242135Z AUTO 02003KT 1/4SM SN OVC001 M02/M03 A3013 RMK AO2
KAPA - Denver/Arapahoe
Distance from station: N 42mi, 68km
Updated: Tue, May-24-2022 2:53pm MDT
Mostly cloudy
Mostly cloudy
 Wind from N
Wind: N 5 mph , 7 km/h
Temperature: 52°F , 11°C
Dew Point: 34°F , 1°C
Humidity: 50%
Barometer: 30.00 inHg , 1015.9 hPa
Clouds: Mostly cloudy
Visibility: 10 miles , 16 km
Cloud details: Partly cloudy 3600 ft
Mostly cloudy 13000 ft
Mostly cloudy 20000 ft
2022/05/24 20:53 KAPA 242053Z 01004KT 10SM SCT036 BKN130 BKN200 11/01 A3000 RMK AO2 SLP138 T01110011 56011
 
KPUB - Pueblo
Distance from station: SSE 49mi, 79km
Updated: Tue, May-24-2022 3:51pm MDT
Light rain, Overcast
Light rain, Overcast
 Wind from varies
Wind: varies 3 mph , 6 km/h
Temperature: 48°F , 9°C
Dew Point: 43°F , 6°C
Humidity: 82%
Barometer: 29.99 inHg , 1015.6 hPa
Summary: Light rain
Clouds: Overcast
Visibility: 3 miles , 5 km
Cloud details: Few Clouds 1100 ft
Mostly cloudy 3200 ft
Overcast 5000 ft
2022/05/24 21:51 KPUB 242151Z VRB03KT 3SM R08R/5500VP6000FT -RA FEW011 BKN032 OVC050 09/06 A2999 RMK AO2 RAE09B31 P0006